Cedar Falls, Iowa
Current Conditions -  °F | °C
As of 1:54 PM on Monday 26 Jan 2015 (Local Time) from KALO Reporting Station
Few Clouds Few Clouds  
Wind Chill:   Ceiling: Unl
Heat Index:   Visibility: 10mi
Dew Point:   Wind: 13mph
Humidity: 74%   Direction: 330°NNW
Pressure: 29.74"   Gusts: NA
Location:  42.53°N, 92.44°W
Report Text: KALO 261954Z AUTO 33011KT 10SM FEW020 FEW036 07/03 A2974 RMK AO2 SLP079 T00720028
Loading
Personal Weather Stations






























Interactive Weather Map New forecast layout! Learn more

10-Day Weather Forecast

Advertisements
Track Severe Weather on mobile